createdAt,value
2022-11-16T00:00:59.371Z,99.90
2022-11-16T00:03:28.996Z,99.90
2022-11-16T00:05:58.066Z,99.90
2022-11-16T00:08:30.860Z,99.90
2022-11-16T00:11:06.027Z,99.90
2022-11-16T00:13:34.531Z,99.90
2022-11-16T00:16:03.371Z,99.90
2022-11-16T00:18:33.619Z,99.90
2022-11-16T00:21:04.375Z,99.90
2022-11-16T00:23:33.571Z,99.90
2022-11-16T00:26:06.242Z,99.90
2022-11-16T00:28:35.216Z,99.90
2022-11-16T00:31:06.053Z,99.90
2022-11-16T00:33:36.830Z,99.90
2022-11-16T00:36:06.675Z,99.90
2022-11-16T00:38:36.252Z,99.90
2022-11-16T00:41:04.698Z,99.90
2022-11-16T00:43:32.892Z,99.90
2022-11-16T00:46:00.999Z,99.90
2022-11-16T00:48:33.689Z,99.90
2022-11-16T00:51:03.433Z,99.90
2022-11-16T00:53:31.575Z,99.90
2022-11-16T00:55:59.868Z,99.90
2022-11-16T00:58:28.532Z,99.90
2022-11-16T01:00:56.849Z,99.90
2022-11-16T01:03:25.092Z,99.90
2022-11-16T01:05:53.276Z,99.90
2022-11-16T01:08:23.231Z,99.90
2022-11-16T01:10:51.742Z,99.90
2022-11-16T01:13:18.924Z,99.90
2022-11-16T01:15:50.066Z,99.90
2022-11-16T01:18:18.698Z,99.90
2022-11-16T01:20:46.759Z,99.90
2022-11-16T01:23:14.962Z,99.90
2022-11-16T01:25:44.587Z,99.90
2022-11-16T01:28:13.124Z,99.90
2022-11-16T01:30:41.403Z,99.90
2022-11-16T01:33:09.757Z,99.90
2022-11-16T01:35:44.634Z,99.90
2022-11-16T01:38:12.820Z,99.90
2022-11-16T01:40:41.147Z,99.90
2022-11-16T01:43:18.495Z,99.90
2022-11-16T01:45:47.320Z,99.90
2022-11-16T01:48:18.744Z,99.90
2022-11-16T01:50:48.408Z,99.90
2022-11-16T01:53:17.238Z,99.90
2022-11-16T01:55:47.688Z,99.90
2022-11-16T01:58:21.043Z,99.90
2022-11-16T02:00:50.164Z,99.90
2022-11-16T02:03:19.285Z,99.90
2022-11-16T02:06:00.877Z,99.90
2022-11-16T02:08:59.267Z,99.90
2022-11-16T02:11:48.124Z,99.90
2022-11-16T02:14:34.234Z,99.90
2022-11-16T02:17:13.945Z,99.90
2022-11-16T02:20:08.347Z,99.90
2022-11-16T02:22:53.149Z,99.90
2022-11-16T02:25:31.866Z,99.90
2022-11-16T02:28:21.786Z,99.90
2022-11-16T02:30:54.851Z,99.90
2022-11-16T02:33:26.914Z,99.90
2022-11-16T02:36:00.024Z,99.90
2022-11-16T02:38:30.615Z,99.90
2022-11-16T02:41:03.309Z,99.90
2022-11-16T02:43:37.875Z,99.90
2022-11-16T02:46:10.932Z,99.90
2022-11-16T02:48:43.031Z,99.90
2022-11-16T02:51:12.359Z,99.90
2022-11-16T02:53:52.597Z,99.90
2022-11-16T02:56:20.930Z,99.90
2022-11-16T02:58:49.480Z,99.90
2022-11-16T03:01:26.462Z,99.90
2022-11-16T03:03:59.139Z,99.90
2022-11-16T03:06:31.437Z,99.90
2022-11-16T03:09:03.403Z,99.90
2022-11-16T03:11:51.531Z,99.90
2022-11-16T03:14:24.423Z,99.90
2022-11-16T03:16:57.678Z,99.90
2022-11-16T03:19:30.798Z,99.90
2022-11-16T03:22:01.739Z,99.90
2022-11-16T03:24:30.103Z,99.90
2022-11-16T03:27:06.488Z,99.90
2022-11-16T03:29:44.400Z,99.90
2022-11-16T03:32:20.118Z,99.90
2022-11-16T03:34:55.815Z,99.90
2022-11-16T03:37:27.072Z,99.90
2022-11-16T03:39:57.811Z,99.90
2022-11-16T03:42:28.398Z,99.90
2022-11-16T03:44:58.032Z,99.90
2022-11-16T03:47:27.589Z,99.90
2022-11-16T03:49:56.215Z,99.90
2022-11-16T03:52:24.381Z,99.90
2022-11-16T03:54:52.525Z,99.90
2022-11-16T03:57:20.873Z,99.90
2022-11-16T03:59:49.391Z,99.90
2022-11-16T04:02:17.507Z,99.90
2022-11-16T04:05:04.916Z,99.90
2022-11-16T04:07:50.942Z,99.90
2022-11-16T04:10:36.739Z,99.90
2022-11-16T04:13:19.527Z,99.90
2022-11-16T04:16:05.583Z,99.90
2022-11-16T04:18:51.928Z,99.90
2022-11-16T04:21:43.289Z,99.90
2022-11-16T04:24:16.207Z,99.90
2022-11-16T04:27:04.280Z,99.90
2022-11-16T04:29:32.784Z,99.90
2022-11-16T04:32:23.885Z,99.90
2022-11-16T04:35:18.027Z,99.90
2022-11-16T04:37:50.569Z,99.90
2022-11-16T04:40:20.577Z,99.90
2022-11-16T04:42:53.200Z,99.90
2022-11-16T04:45:39.299Z,99.90
2022-11-16T04:48:08.296Z,99.90
2022-11-16T04:50:36.660Z,99.90
2022-11-16T04:53:07.214Z,99.90
2022-11-16T04:55:35.899Z,99.90
2022-11-16T04:58:04.811Z,99.90
2022-11-16T05:00:33.718Z,99.90
2022-11-16T05:03:02.114Z,99.90
2022-11-16T05:05:30.873Z,99.90
2022-11-16T05:07:59.015Z,99.90
2022-11-16T05:10:28.806Z,99.90
2022-11-16T05:12:56.965Z,99.90
2022-11-16T05:15:25.382Z,99.90
2022-11-16T05:17:55.748Z,99.90
2022-11-16T05:20:41.373Z,99.90
2022-11-16T05:23:30.790Z,99.90
2022-11-16T05:26:00.293Z,99.90
2022-11-16T05:28:28.451Z,99.90
2022-11-16T05:30:57.111Z,99.90
2022-11-16T05:33:25.286Z,99.90
2022-11-16T05:35:54.094Z,99.90
2022-11-16T05:38:22.841Z,99.90
2022-11-16T05:40:51.576Z,99.90
2022-11-16T05:43:21.228Z,99.90
2022-11-16T05:45:49.465Z,99.90
2022-11-16T05:48:17.607Z,99.90
2022-11-16T05:50:45.734Z,99.90
2022-11-16T05:53:14.369Z,99.90
2022-11-16T05:55:42.477Z,99.90
2022-11-16T05:58:10.626Z,99.90
2022-11-16T06:00:40.967Z,99.90
2022-11-16T06:03:09.228Z,99.90
2022-11-16T06:05:40.499Z,99.90
2022-11-16T06:08:09.878Z,99.90
2022-11-16T06:10:38.102Z,99.90
2022-11-16T06:13:06.721Z,99.90
2022-11-16T06:15:40.751Z,99.90
2022-11-16T06:18:10.278Z,99.90
2022-11-16T06:20:40.663Z,99.90
2022-11-16T06:23:09.812Z,99.90
2022-11-16T06:25:40.415Z,99.90
2022-11-16T06:28:09.263Z,99.90
2022-11-16T06:30:38.273Z,99.90
2022-11-16T06:33:08.208Z,99.90
2022-11-16T06:35:36.427Z,99.90
2022-11-16T06:38:06.522Z,99.90
2022-11-16T06:40:34.797Z,99.90
2022-11-16T06:43:03.269Z,99.90
2022-11-16T06:45:31.861Z,99.90
2022-11-16T06:48:01.643Z,99.90
2022-11-16T06:50:31.482Z,99.90
2022-11-16T06:53:00.951Z,99.90
2022-11-16T06:55:29.366Z,99.90
2022-11-16T06:57:58.060Z,99.90
2022-11-16T07:00:26.648Z,99.90
2022-11-16T07:02:55.441Z,99.90
2022-11-16T07:05:23.694Z,99.90
2022-11-16T07:07:57.067Z,99.90
2022-11-16T07:10:27.000Z,99.90
2022-11-16T07:12:55.768Z,99.90
2022-11-16T07:15:26.463Z,99.90
2022-11-16T07:17:54.697Z,99.90
2022-11-16T07:20:23.151Z,99.90
2022-11-16T07:22:52.683Z,99.90
2022-11-16T07:25:23.430Z,99.90
2022-11-16T07:27:52.005Z,99.90
2022-11-16T07:30:20.631Z,99.90
2022-11-16T07:32:48.761Z,99.90
2022-11-16T07:35:17.123Z,99.90
2022-11-16T07:37:45.605Z,99.90
2022-11-16T07:40:13.869Z,99.90
2022-11-16T07:42:43.687Z,99.90
2022-11-16T07:45:12.317Z,99.90
2022-11-16T07:47:40.450Z,99.90
2022-11-16T07:50:10.840Z,99.90
2022-11-16T07:52:39.396Z,99.90
2022-11-16T07:55:07.834Z,99.90
2022-11-16T07:57:35.966Z,99.90
2022-11-16T08:00:06.848Z,99.90
2022-11-16T08:02:35.044Z,99.90
2022-11-16T08:05:03.301Z,99.90
2022-11-16T08:07:31.854Z,99.90
2022-11-16T08:10:00.543Z,99.90
2022-11-16T08:12:29.045Z,99.90
2022-11-16T08:14:57.291Z,99.90
2022-11-16T08:17:26.903Z,99.90
2022-11-16T08:19:55.296Z,99.90
2022-11-16T08:22:27.818Z,99.90
2022-11-16T08:24:55.933Z,99.90
2022-11-16T08:27:24.951Z,99.90
2022-11-16T08:29:53.248Z,99.90
2022-11-16T08:32:21.456Z,99.90
2022-11-16T08:34:51.445Z,99.90
2022-11-16T08:37:20.391Z,99.90
2022-11-16T08:39:48.641Z,99.90
2022-11-16T08:42:17.211Z,99.90
2022-11-16T08:44:45.771Z,99.90
2022-11-16T08:47:14.307Z,99.90
2022-11-16T08:49:48.178Z,99.90
2022-11-16T08:52:19.634Z,99.90
2022-11-16T08:54:47.782Z,99.90
2022-11-16T08:57:16.215Z,99.90
2022-11-16T08:59:44.798Z,99.90
2022-11-16T09:02:13.126Z,99.90
2022-11-16T09:04:42.415Z,99.90
2022-11-16T09:07:11.602Z,99.90
2022-11-16T09:09:41.157Z,99.90
2022-11-16T09:12:09.381Z,99.90
2022-11-16T09:14:37.835Z,99.90
2022-11-16T09:17:06.286Z,99.90
2022-11-16T09:19:34.760Z,99.90
2022-11-16T09:22:02.974Z,99.90
2022-11-16T09:24:31.321Z,99.90
2022-11-16T09:27:02.049Z,99.90
2022-11-16T09:29:31.156Z,99.90
2022-11-16T09:31:59.615Z,99.00
2022-11-16T09:34:27.826Z,97.00
2022-11-16T09:36:56.058Z,94.40
2022-11-16T09:39:31.166Z,92.90
2022-11-16T09:42:19.514Z,90.50
2022-11-16T09:45:00.115Z,90.90
2022-11-16T09:47:41.973Z,89.60
2022-11-16T09:50:27.864Z,88.90
2022-11-16T09:53:00.781Z,90.90
2022-11-16T09:55:34.801Z,91.00
2022-11-16T09:58:14.754Z,92.60
2022-11-16T10:00:50.758Z,92.90
2022-11-16T10:03:19.331Z,92.20
2022-11-16T10:05:56.018Z,91.00
2022-11-16T10:08:29.268Z,91.20
2022-11-16T10:11:07.527Z,91.00
2022-11-16T10:13:46.241Z,90.90
2022-11-16T10:16:21.717Z,93.10
2022-11-16T10:18:56.956Z,94.30
2022-11-16T10:21:47.238Z,95.30
2022-11-16T10:24:37.006Z,95.10
2022-11-16T10:27:27.705Z,96.50
2022-11-16T10:30:08.509Z,94.90
2022-11-16T10:32:40.589Z,96.70
2022-11-16T10:35:17.278Z,94.60
2022-11-16T10:37:49.387Z,95.30
2022-11-16T10:40:24.644Z,95.80
2022-11-16T10:43:02.451Z,97.40
2022-11-16T10:45:39.186Z,98.70
2022-11-16T10:48:17.317Z,99.90
2022-11-16T10:50:48.293Z,99.90
2022-11-16T10:53:26.486Z,99.90
2022-11-16T10:56:11.991Z,99.90
2022-11-16T10:58:58.653Z,99.90
2022-11-16T11:01:38.102Z,99.90
2022-11-16T11:04:19.013Z,99.90
2022-11-16T11:06:51.522Z,99.90
2022-11-16T11:09:28.991Z,99.90
2022-11-16T11:12:31.382Z,99.90
2022-11-16T11:15:02.295Z,99.90
2022-11-16T11:17:34.062Z,99.90
2022-11-16T11:20:05.554Z,99.90
2022-11-16T11:22:35.939Z,99.90
2022-11-16T11:25:05.474Z,99.90
2022-11-16T11:27:35.777Z,99.90
2022-11-16T11:30:04.963Z,99.90
2022-11-16T11:32:40.554Z,99.90
2022-11-16T11:35:24.641Z,99.90
2022-11-16T11:37:55.720Z,99.90
2022-11-16T11:40:27.057Z,99.90
2022-11-16T11:42:58.346Z,99.90
2022-11-16T11:45:34.895Z,99.90
2022-11-16T11:48:13.808Z,99.90
2022-11-16T11:50:49.234Z,99.90
2022-11-16T11:53:40.141Z,99.90
2022-11-16T11:56:13.118Z,99.90
2022-11-16T11:58:42.655Z,99.90
2022-11-16T12:01:49.135Z,99.90
2022-11-16T12:04:58.368Z,99.90
2022-11-16T12:07:45.470Z,99.90
2022-11-16T12:10:23.009Z,99.90
2022-11-16T12:13:01.780Z,99.90
2022-11-16T12:15:50.660Z,99.90
2022-11-16T12:18:37.549Z,99.90
2022-11-16T12:21:14.584Z,99.90
2022-11-16T12:23:59.751Z,99.90
2022-11-16T12:26:37.516Z,99.90
2022-11-16T12:29:24.989Z,99.90
2022-11-16T12:32:15.553Z,99.90
2022-11-16T12:35:01.681Z,99.90
2022-11-16T12:37:41.466Z,99.90
2022-11-16T12:40:39.774Z,99.90
2022-11-16T12:43:18.123Z,99.90
2022-11-16T12:46:01.950Z,99.90
2022-11-16T12:49:12.646Z,99.90
2022-11-16T12:51:54.578Z,99.90
2022-11-16T12:54:57.977Z,99.90
2022-11-16T12:57:45.192Z,99.90
2022-11-16T13:00:15.853Z,99.90
2022-11-16T13:03:05.329Z,99.90
2022-11-16T13:05:54.876Z,99.90
2022-11-16T13:08:45.790Z,99.90
2022-11-16T13:11:20.848Z,99.90
2022-11-16T13:13:54.046Z,99.90
2022-11-16T13:16:24.215Z,99.90
2022-11-16T13:18:53.403Z,99.90
2022-11-16T13:21:31.289Z,99.90
2022-11-16T13:24:13.965Z,99.90
2022-11-16T13:26:53.014Z,99.90
2022-11-16T13:29:36.850Z,99.90
2022-11-16T13:32:15.260Z,99.90
2022-11-16T13:34:43.876Z,99.90
2022-11-16T13:37:42.671Z,99.90
2022-11-16T13:40:36.459Z,99.90
2022-11-16T13:43:19.111Z,99.90
2022-11-16T13:45:57.941Z,99.90
2022-11-16T13:48:33.717Z,99.90
2022-11-16T13:51:04.916Z,99.90
2022-11-16T13:56:29.025Z,99.90
2022-11-16T13:59:00.592Z,99.90
2022-11-16T14:01:55.938Z,99.90
2022-11-16T14:04:42.053Z,99.90
2022-11-16T14:07:32.709Z,99.90
2022-11-16T14:10:01.300Z,99.90
2022-11-16T14:12:57.547Z,99.90
2022-11-16T14:15:36.400Z,99.90
2022-11-16T14:18:34.054Z,99.90
2022-11-16T14:21:14.503Z,99.90
2022-11-16T14:24:04.194Z,99.90
2022-11-16T14:26:46.789Z,99.90
2022-11-16T14:29:49.273Z,99.90
2022-11-16T14:32:24.039Z,99.90
2022-11-16T14:35:01.866Z,99.90
2022-11-16T14:37:35.841Z,99.90
2022-11-16T14:40:33.483Z,99.90
2022-11-16T14:43:16.427Z,99.90
2022-11-16T14:45:49.313Z,99.90
2022-11-16T14:48:24.672Z,99.90
2022-11-16T14:51:17.171Z,99.90
2022-11-16T14:53:49.593Z,99.90
2022-11-16T14:56:19.451Z,99.90
2022-11-16T14:58:54.183Z,99.90
2022-11-16T15:01:26.096Z,99.90
2022-11-16T15:04:02.472Z,99.90
2022-11-16T15:06:33.378Z,99.90
2022-11-16T15:09:05.174Z,99.90
2022-11-16T15:11:54.789Z,99.90
2022-11-16T15:14:26.688Z,99.90
2022-11-16T15:16:56.881Z,99.90
2022-11-16T15:19:29.771Z,99.90
2022-11-16T15:21:59.468Z,99.90
2022-11-16T15:24:31.302Z,99.90
2022-11-16T15:27:11.748Z,99.90
2022-11-16T15:29:40.715Z,99.90
2022-11-16T15:32:16.915Z,99.90
2022-11-16T15:34:55.220Z,99.90
2022-11-16T15:37:30.542Z,99.90
2022-11-16T15:40:00.770Z,99.90
2022-11-16T15:42:30.123Z,99.90
2022-11-16T15:45:01.583Z,99.90
2022-11-16T15:47:29.890Z,99.90
2022-11-16T15:49:59.676Z,99.90
2022-11-16T15:52:45.822Z,99.90
2022-11-16T15:55:31.853Z,99.90
2022-11-16T15:58:06.727Z,99.90
2022-11-16T16:00:37.791Z,99.90
2022-11-16T16:03:09.242Z,99.90
2022-11-16T16:05:41.788Z,99.90
2022-11-16T16:08:28.709Z,99.90
2022-11-16T16:11:10.506Z,99.90
2022-11-16T16:13:40.651Z,99.90
2022-11-16T16:16:28.081Z,99.90
2022-11-16T16:19:01.609Z,99.90
2022-11-16T16:21:45.255Z,99.90
2022-11-16T16:24:41.972Z,99.90
2022-11-16T16:27:17.542Z,99.90
2022-11-16T16:29:49.494Z,99.90
2022-11-16T16:32:27.252Z,99.90
2022-11-16T16:34:57.874Z,99.90
2022-11-16T16:37:34.010Z,99.90
2022-11-16T16:40:03.729Z,99.90
2022-11-16T16:42:35.800Z,99.90
2022-11-16T16:45:05.635Z,99.90
2022-11-16T16:47:34.913Z,99.90
2022-11-16T16:50:03.167Z,99.90
2022-11-16T16:52:33.516Z,99.90
2022-11-16T16:55:02.336Z,99.90
2022-11-16T16:57:31.080Z,99.90
2022-11-16T16:59:59.382Z,99.90
2022-11-16T17:02:28.240Z,99.90
2022-11-16T17:04:58.808Z,99.90
2022-11-16T17:07:27.393Z,99.90
2022-11-16T17:09:57.387Z,99.90
2022-11-16T17:12:26.065Z,99.90
2022-11-16T17:14:54.531Z,99.90
2022-11-16T17:17:24.958Z,99.90
2022-11-16T17:19:54.087Z,99.90
2022-11-16T17:22:24.458Z,99.90
2022-11-16T17:24:52.833Z,99.90
2022-11-16T17:27:22.724Z,99.90
2022-11-16T17:29:51.291Z,99.90
2022-11-16T17:32:20.210Z,99.90
2022-11-16T17:34:49.058Z,99.90
2022-11-16T17:37:17.476Z,99.90
2022-11-16T17:39:46.244Z,99.90
2022-11-16T17:42:14.666Z,99.90
2022-11-16T17:44:44.715Z,99.90
2022-11-16T17:47:13.295Z,99.90
2022-11-16T17:49:41.661Z,99.90
2022-11-16T17:52:09.906Z,99.90
2022-11-16T17:54:39.597Z,99.90
2022-11-16T17:57:08.182Z,99.90
2022-11-16T17:59:36.581Z,99.90
2022-11-16T18:02:06.607Z,99.90
2022-11-16T18:04:36.614Z,99.90
2022-11-16T18:07:05.089Z,99.90
2022-11-16T18:09:34.137Z,99.90
2022-11-16T18:12:02.690Z,99.90
2022-11-16T18:14:32.201Z,99.90
2022-11-16T18:17:00.747Z,99.90
2022-11-16T18:19:30.850Z,99.90
2022-11-16T18:21:59.532Z,99.90
2022-11-16T18:24:27.887Z,99.90
2022-11-16T18:26:56.318Z,99.90
2022-11-16T18:29:24.640Z,99.90
2022-11-16T18:31:54.089Z,99.90
2022-11-16T18:34:22.870Z,99.90
2022-11-16T18:36:52.960Z,99.90
2022-11-16T18:39:21.297Z,99.90
2022-11-16T18:41:54.997Z,99.90
2022-11-16T18:44:24.437Z,99.90
2022-11-16T18:46:53.439Z,99.90
2022-11-16T18:49:21.723Z,99.90
2022-11-16T18:51:50.159Z,99.90
2022-11-16T18:54:19.871Z,99.90
2022-11-16T18:56:49.066Z,99.90
2022-11-16T18:59:17.559Z,99.90
2022-11-16T19:01:46.065Z,99.90
2022-11-16T19:04:14.651Z,99.90
2022-11-16T19:06:43.029Z,99.90
2022-11-16T19:09:11.833Z,99.90
2022-11-16T19:11:46.481Z,99.90
2022-11-16T19:14:14.783Z,99.90
2022-11-16T19:16:52.501Z,99.90
2022-11-16T19:19:24.509Z,99.90
2022-11-16T19:21:53.197Z,99.90
2022-11-16T19:24:21.589Z,99.90
2022-11-16T19:26:51.497Z,99.90
2022-11-16T19:29:19.761Z,99.90
2022-11-16T19:31:48.408Z,99.90
2022-11-16T19:34:16.878Z,99.90
2022-11-16T19:36:45.727Z,99.90
2022-11-16T19:39:14.223Z,99.90
2022-11-16T19:41:43.115Z,99.90
2022-11-16T19:44:13.381Z,99.90
2022-11-16T19:46:42.158Z,99.90
2022-11-16T19:49:19.468Z,99.90
2022-11-16T19:51:48.792Z,99.90
2022-11-16T19:54:17.293Z,99.90
2022-11-16T19:56:49.330Z,99.90
2022-11-16T19:59:23.187Z,99.90
2022-11-16T20:01:51.525Z,99.90
2022-11-16T20:04:20.095Z,99.90
2022-11-16T20:06:48.625Z,99.90
2022-11-16T20:09:23.633Z,99.90
2022-11-16T20:12:03.312Z,99.90
2022-11-16T20:14:34.647Z,99.90
2022-11-16T20:17:08.226Z,99.90
2022-11-16T20:19:36.650Z,99.90
2022-11-16T20:22:06.412Z,99.90
2022-11-16T20:24:35.116Z,99.90
2022-11-16T20:27:03.402Z,99.90
2022-11-16T20:29:33.111Z,99.90
2022-11-16T20:32:02.067Z,99.90
2022-11-16T20:34:30.886Z,99.90
2022-11-16T20:37:01.324Z,99.90
2022-11-16T20:39:29.863Z,99.90
2022-11-16T20:41:58.077Z,99.90
2022-11-16T20:44:26.507Z,99.90
2022-11-16T20:46:56.843Z,99.90
2022-11-16T20:49:25.044Z,99.90
2022-11-16T20:51:53.759Z,99.90
2022-11-16T20:54:22.244Z,99.90
2022-11-16T20:56:51.093Z,99.90
2022-11-16T20:59:19.866Z,99.90
2022-11-16T21:01:49.041Z,99.90
2022-11-16T21:04:18.698Z,99.90
2022-11-16T21:06:49.055Z,99.90
2022-11-16T21:09:22.953Z,99.90
2022-11-16T21:12:08.646Z,99.90
2022-11-16T21:14:36.945Z,99.90
2022-11-16T21:17:05.547Z,99.90
2022-11-16T21:19:35.171Z,99.90
2022-11-16T21:22:04.060Z,99.90
2022-11-16T21:24:32.476Z,99.90
2022-11-16T21:27:00.992Z,99.90
2022-11-16T21:29:30.455Z,99.90
2022-11-16T21:31:59.489Z,99.90
2022-11-16T21:34:33.548Z,99.90
2022-11-16T21:37:05.535Z,99.90
2022-11-16T21:39:35.459Z,99.90
2022-11-16T21:42:03.597Z,99.90
2022-11-16T21:44:42.055Z,99.90
2022-11-16T21:47:11.474Z,99.90
2022-11-16T21:50:02.363Z,99.90
2022-11-16T21:52:30.559Z,99.90
2022-11-16T21:55:01.640Z,99.90
2022-11-16T21:57:30.312Z,99.90
2022-11-16T21:59:58.810Z,99.90
2022-11-16T22:02:28.425Z,99.90
2022-11-16T22:05:14.410Z,99.90
2022-11-16T22:07:45.000Z,99.90
2022-11-16T22:10:14.583Z,99.90
2022-11-16T22:12:43.531Z,99.90
2022-11-16T22:15:12.212Z,99.90
2022-11-16T22:17:43.938Z,99.90
2022-11-16T22:20:13.291Z,99.90
2022-11-16T22:22:42.147Z,99.90
2022-11-16T22:25:13.932Z,99.90
2022-11-16T22:28:06.042Z,99.90
2022-11-16T22:30:31.292Z,99.90
2022-11-16T22:33:00.223Z,99.90
2022-11-16T22:35:28.622Z,99.90
2022-11-16T22:37:57.378Z,99.90
2022-11-16T22:40:27.267Z,99.90
2022-11-16T22:42:57.969Z,99.90
2022-11-16T22:45:26.716Z,99.90
2022-11-16T22:47:55.317Z,99.90
2022-11-16T22:50:24.534Z,99.90
2022-11-16T22:52:52.887Z,99.90
2022-11-16T22:55:21.241Z,99.90
2022-11-16T22:57:51.269Z,99.90
2022-11-16T23:00:20.124Z,99.90
2022-11-16T23:02:48.825Z,99.90
2022-11-16T23:05:18.100Z,99.90
2022-11-16T23:07:46.885Z,99.90
2022-11-16T23:10:16.213Z,99.90
2022-11-16T23:13:02.059Z,99.90
2022-11-16T23:15:51.123Z,99.90
2022-11-16T23:18:20.917Z,99.90
2022-11-16T23:21:06.444Z,99.90
2022-11-16T23:23:52.137Z,99.90
2022-11-16T23:26:43.466Z,99.90
2022-11-16T23:29:12.856Z,99.90
2022-11-16T23:31:42.833Z,99.90
2022-11-16T23:34:11.738Z,99.90
2022-11-16T23:36:44.085Z,99.90
2022-11-16T23:39:12.354Z,99.90
2022-11-16T23:41:57.731Z,99.90
2022-11-16T23:44:26.147Z,99.90
2022-11-16T23:46:55.932Z,99.90
2022-11-16T23:49:24.534Z,99.90
2022-11-16T23:51:52.851Z,99.90
2022-11-16T23:54:21.025Z,99.90
2022-11-16T23:56:49.183Z,99.90
2022-11-16T23:59:18.228Z,99.90
